createdAt,value
2018-02-09T00:01:07.595Z,69.70
2018-02-09T00:03:35.178Z,75.37
2018-02-09T00:06:02.992Z,71.63
2018-02-09T00:08:32.146Z,72.73
2018-02-09T00:10:59.914Z,78.10
2018-02-09T00:13:27.526Z,76.83
2018-02-09T00:15:55.150Z,74.10
2018-02-09T00:18:22.743Z,76.17
2018-02-09T00:20:50.369Z,72.23
2018-02-09T00:23:18.211Z,75.90
2018-02-09T00:25:45.858Z,78.03
2018-02-09T00:28:13.451Z,72.70
2018-02-09T00:30:41.093Z,70.63
2018-02-09T00:33:08.730Z,75.37
2018-02-09T00:35:36.316Z,75.30
2018-02-09T00:38:03.898Z,80.30
2018-02-09T00:40:31.511Z,68.87
2018-02-09T00:42:59.124Z,76.30
2018-02-09T00:45:26.709Z,72.63
2018-02-09T00:47:54.344Z,74.57
2018-02-09T00:50:21.927Z,72.77
2018-02-09T00:52:49.545Z,77.60
2018-02-09T00:55:17.200Z,71.20
2018-02-09T00:57:44.810Z,77.03
2018-02-09T01:00:12.401Z,74.97
2018-02-09T01:02:40.030Z,64.60
2018-02-09T01:05:07.667Z,75.30
2018-02-09T01:07:35.273Z,66.70
2018-02-09T01:10:02.859Z,80.17
2018-02-09T01:12:30.492Z,76.10
2018-02-09T01:14:58.080Z,73.97
2018-02-09T01:17:25.663Z,73.23
2018-02-09T01:19:53.284Z,75.30
2018-02-09T01:22:20.884Z,76.27
2018-02-09T01:24:48.503Z,77.43
2018-02-09T01:27:16.122Z,78.20
2018-02-09T01:29:44.362Z,69.97
2018-02-09T01:32:11.990Z,72.60
2018-02-09T01:34:39.570Z,72.23
2018-02-09T01:37:07.187Z,69.33
2018-02-09T01:39:34.770Z,72.90
2018-02-09T01:42:02.393Z,70.17
2018-02-09T01:44:29.990Z,71.53
2018-02-09T01:46:57.609Z,72.13
2018-02-09T01:49:25.235Z,74.07
2018-02-09T01:51:52.861Z,75.00
2018-02-09T01:54:20.438Z,70.73
2018-02-09T01:56:48.071Z,66.90
2018-02-09T01:59:15.725Z,70.43
2018-02-09T02:01:43.312Z,72.60
2018-02-09T02:04:10.891Z,76.30
2018-02-09T02:06:38.515Z,75.07
2018-02-09T02:09:06.102Z,72.37
2018-02-09T02:11:33.691Z,69.13
2018-02-09T02:14:02.083Z,73.40
2018-02-09T02:16:29.668Z,74.70
2018-02-09T02:18:57.259Z,72.13
2018-02-09T02:21:24.882Z,73.83
2018-02-09T02:23:52.473Z,69.50
2018-02-09T02:26:20.106Z,67.83
2018-02-09T02:28:47.700Z,71.13
2018-02-09T02:31:15.276Z,71.33
2018-02-09T02:33:42.895Z,74.73
2018-02-09T02:36:10.539Z,72.13
2018-02-09T02:38:38.124Z,70.57
2018-02-09T02:41:05.720Z,71.40
2018-02-09T02:43:33.344Z,71.40
2018-02-09T02:46:00.927Z,72.13
2018-02-09T02:48:28.559Z,69.40
2018-02-09T02:50:56.140Z,65.30
2018-02-09T02:53:23.776Z,73.20
2018-02-09T02:55:51.364Z,67.40
2018-02-09T02:58:18.951Z,75.80
2018-02-09T03:00:46.579Z,72.00
2018-02-09T03:03:14.163Z,66.30
2018-02-09T03:05:41.792Z,64.00
2018-02-09T03:08:09.367Z,63.30
2018-02-09T03:10:36.951Z,64.90
2018-02-09T03:13:04.585Z,67.13
2018-02-09T03:15:32.177Z,71.83
2018-02-09T03:17:59.804Z,68.23
2018-02-09T03:20:27.414Z,75.03
2018-02-09T03:22:55.042Z,64.80
2018-02-09T03:25:22.622Z,70.57
2018-02-09T03:27:50.248Z,66.67
2018-02-09T03:30:17.827Z,73.27
2018-02-09T03:32:45.447Z,67.70
2018-02-09T03:35:13.031Z,68.03
2018-02-09T03:37:40.654Z,69.60
2018-02-09T03:40:08.244Z,72.30
2018-02-09T03:42:35.872Z,67.80
2018-02-09T03:45:03.497Z,74.63
2018-02-09T03:47:31.084Z,73.43
2018-02-09T03:49:58.716Z,80.53
2018-02-09T03:52:26.290Z,66.83
2018-02-09T03:54:53.915Z,72.47
2018-02-09T03:57:21.491Z,72.63
2018-02-09T03:59:49.075Z,74.43
2018-02-09T04:02:16.702Z,72.53
2018-02-09T04:04:44.294Z,72.30
2018-02-09T04:07:11.915Z,63.23
2018-02-09T04:09:39.508Z,71.90
2018-02-09T04:12:07.153Z,71.30
2018-02-09T04:14:34.743Z,74.17
2018-02-09T04:17:02.334Z,66.40
2018-02-09T04:19:30.719Z,72.43
2018-02-09T04:21:59.126Z,67.27
2018-02-09T04:24:26.712Z,69.80
2018-02-09T04:26:54.312Z,72.67
2018-02-09T04:29:22.698Z,74.03
2018-02-09T04:31:51.043Z,69.60
2018-02-09T04:34:18.667Z,69.37
2018-02-09T04:36:46.257Z,80.10
2018-02-09T04:39:13.836Z,75.10
2018-02-09T04:41:43.077Z,75.60
2018-02-09T04:44:10.662Z,77.13
2018-02-09T04:46:38.280Z,71.77
2018-02-09T04:49:06.629Z,71.57
2018-02-09T04:51:34.266Z,73.40
2018-02-09T04:54:01.847Z,72.10
2018-02-09T04:56:29.423Z,75.43
2018-02-09T04:58:57.065Z,79.93
2018-02-09T05:01:24.644Z,77.77
2018-02-09T05:03:52.233Z,78.13
2018-02-09T05:06:19.856Z,76.13
2018-02-09T05:08:47.437Z,72.80
2018-02-09T05:11:15.054Z,79.67
2018-02-09T05:13:42.669Z,82.40
2018-02-09T05:16:10.301Z,75.20
2018-02-09T05:18:37.887Z,82.97
2018-02-09T05:21:05.520Z,77.10
2018-02-09T05:23:33.108Z,76.33
2018-02-09T05:26:00.691Z,80.23
2018-02-09T05:28:28.310Z,84.17
2018-02-09T05:30:55.930Z,79.13
2018-02-09T05:33:23.519Z,72.33
2018-02-09T05:35:51.100Z,77.60
2018-02-09T05:38:18.719Z,83.97
2018-02-09T05:40:46.303Z,77.97
2018-02-09T05:43:13.934Z,80.13
2018-02-09T05:45:41.553Z,73.37
2018-02-09T05:48:09.135Z,76.33
2018-02-09T05:50:36.767Z,85.07
2018-02-09T05:53:04.344Z,81.27
2018-02-09T05:55:31.922Z,81.67
2018-02-09T05:57:59.558Z,81.20
2018-02-09T06:00:27.139Z,76.73
2018-02-09T06:02:54.722Z,76.50
2018-02-09T06:05:22.342Z,79.67
2018-02-09T06:07:49.928Z,80.07
2018-02-09T06:10:18.331Z,84.60
2018-02-09T06:12:45.919Z,80.47
2018-02-09T06:15:13.726Z,78.30
2018-02-09T06:17:41.347Z,75.57
2018-02-09T06:20:08.929Z,82.20
2018-02-09T06:22:36.562Z,81.00
2018-02-09T06:25:04.151Z,77.33
2018-02-09T06:27:31.732Z,87.20
2018-02-09T06:30:00.126Z,77.40
2018-02-09T06:32:27.799Z,80.80
2018-02-09T06:34:55.391Z,76.37
2018-02-09T06:37:22.970Z,78.20
2018-02-09T06:39:50.599Z,76.90
2018-02-09T06:42:18.189Z,77.47
2018-02-09T06:44:45.777Z,76.53
2018-02-09T06:47:14.177Z,88.30
2018-02-09T06:49:41.757Z,80.20
2018-02-09T06:52:09.383Z,86.17
2018-02-09T06:54:37.729Z,80.00
2018-02-09T06:57:05.327Z,72.83
2018-02-09T07:02:06.994Z,78.67
2018-02-09T07:04:34.591Z,76.43
2018-02-09T07:07:02.175Z,79.73
2018-02-09T07:09:29.821Z,82.47
2018-02-09T07:11:57.410Z,82.37
2018-02-09T07:14:24.995Z,80.60
2018-02-09T07:16:55.611Z,79.63
2018-02-09T07:19:25.971Z,76.67
2018-02-09T07:21:55.258Z,88.33
2018-02-09T07:24:23.361Z,80.17
2018-02-09T07:26:51.407Z,84.70
2018-02-09T07:29:19.594Z,78.57
2018-02-09T07:31:47.755Z,82.87
2018-02-09T07:34:15.827Z,85.93
2018-02-09T07:36:45.031Z,84.83
2018-02-09T07:39:13.235Z,81.87
2018-02-09T07:41:42.667Z,71.70
2018-02-09T07:44:10.300Z,76.50
2018-02-09T07:46:37.891Z,75.70
2018-02-09T07:49:05.540Z,72.17
2018-02-09T07:51:33.122Z,74.10
2018-02-09T07:54:00.704Z,73.80
2018-02-09T07:56:29.174Z,72.50
2018-02-09T07:58:56.774Z,73.53
2018-02-09T08:01:24.389Z,70.43
2018-02-09T08:03:51.988Z,73.70
2018-02-09T08:06:19.618Z,73.23
2018-02-09T08:08:47.232Z,62.93
2018-02-09T08:11:14.824Z,68.20
2018-02-09T08:13:42.443Z,63.23
2018-02-09T08:16:10.029Z,67.10
2018-02-09T08:18:37.652Z,64.10
2018-02-09T08:21:05.309Z,64.80
2018-02-09T08:23:32.961Z,60.17
2018-02-09T08:26:00.598Z,59.07
2018-02-09T08:28:28.180Z,60.90
2018-02-09T08:30:55.786Z,63.03
2018-02-09T08:33:23.407Z,80.57
2018-02-09T08:35:51.591Z,78.40
2018-02-09T08:38:19.629Z,81.23
2018-02-09T08:40:47.261Z,66.73
2018-02-09T08:43:15.326Z,58.77
2018-02-09T08:45:43.513Z,63.23
2018-02-09T08:48:11.511Z,50.67
2018-02-09T08:50:40.569Z,55.20
2018-02-09T08:53:08.677Z,49.20
2018-02-09T08:55:36.360Z,45.87
2018-02-09T08:58:03.944Z,46.93
2018-02-09T09:00:31.567Z,48.27
2018-02-09T09:02:59.160Z,47.03
2018-02-09T09:05:26.751Z,46.33
2018-02-09T09:07:54.379Z,43.53
2018-02-09T09:10:21.966Z,42.53
2018-02-09T09:12:49.597Z,40.67
2018-02-09T09:15:17.225Z,39.57
2018-02-09T09:17:44.818Z,42.30
2018-02-09T09:20:12.455Z,37.97
2018-02-09T09:22:40.070Z,43.23
2018-02-09T09:25:07.685Z,41.03
2018-02-09T09:27:35.270Z,36.87
2018-02-09T09:30:02.885Z,37.30
2018-02-09T09:32:30.459Z,35.67
2018-02-09T09:34:58.083Z,36.07
2018-02-09T09:37:25.665Z,36.53
2018-02-09T09:39:53.247Z,34.50
2018-02-09T09:42:20.886Z,32.50
2018-02-09T09:44:48.502Z,30.70
2018-02-09T09:47:16.130Z,29.20
2018-02-09T09:49:43.719Z,31.33
2018-02-09T09:52:11.743Z,32.03
2018-02-09T09:54:39.364Z,41.17
2018-02-09T09:57:08.162Z,38.47
2018-02-09T09:59:36.239Z,27.97
2018-02-09T10:02:04.273Z,27.87
2018-02-09T10:04:32.422Z,29.33
2018-02-09T10:07:00.482Z,24.37
2018-02-09T10:09:28.682Z,23.63
2018-02-09T10:11:57.508Z,24.67
2018-02-09T10:14:25.984Z,23.57
2018-02-09T10:16:54.289Z,26.27
2018-02-09T10:19:22.556Z,27.27
2018-02-09T10:21:50.622Z,27.60
2018-02-09T10:24:20.717Z,22.57
2018-02-09T10:26:48.992Z,23.87
2018-02-09T10:29:17.169Z,21.83
2018-02-09T10:31:45.893Z,22.93
2018-02-09T10:34:13.847Z,19.87
2018-02-09T10:36:42.089Z,18.77
2018-02-09T10:39:10.104Z,20.87
2018-02-09T10:41:37.793Z,21.33
2018-02-09T10:44:05.421Z,19.90
2018-02-09T10:46:33.774Z,19.47
2018-02-09T10:49:02.189Z,21.43
2018-02-09T10:51:30.257Z,19.67
2018-02-09T10:53:58.580Z,20.87
2018-02-09T10:56:27.523Z,22.80
2018-02-09T10:58:55.628Z,19.33
2018-02-09T11:01:29.172Z,23.63
2018-02-09T11:03:57.834Z,22.10
2018-02-09T11:06:25.982Z,22.03
2018-02-09T11:08:54.034Z,25.43
2018-02-09T11:11:23.264Z,20.23
2018-02-09T11:13:51.321Z,22.10
2018-02-09T11:16:19.420Z,23.80
2018-02-09T11:18:47.527Z,20.33
2018-02-09T11:21:15.153Z,20.10
2018-02-09T11:23:42.772Z,22.00
2018-02-09T11:26:10.361Z,24.67
2018-02-09T11:28:38.038Z,19.13
2018-02-09T11:31:05.668Z,24.67
2018-02-09T11:33:33.295Z,21.93
2018-02-09T11:36:00.927Z,22.97
2018-02-09T11:38:28.551Z,23.07
2018-02-09T11:40:56.188Z,20.97
2018-02-09T11:43:24.024Z,23.03
2018-02-09T11:45:52.992Z,24.80
2018-02-09T11:48:21.180Z,21.93
2018-02-09T11:50:49.221Z,20.23
2018-02-09T11:53:17.309Z,33.13
2018-02-09T11:55:45.507Z,32.00
2018-02-09T11:58:13.530Z,23.67
2018-02-09T12:00:41.621Z,23.40
2018-02-09T12:03:09.793Z,24.30
2018-02-09T12:05:41.042Z,26.80
2018-02-09T12:08:10.091Z,25.87
2018-02-09T12:10:38.134Z,23.23
2018-02-09T12:13:06.340Z,22.03
2018-02-09T12:15:34.012Z,22.83
2018-02-09T12:18:01.591Z,22.43
2018-02-09T12:20:29.205Z,20.67
2018-02-09T12:22:56.778Z,24.80
2018-02-09T12:25:24.385Z,23.57
2018-02-09T12:27:51.990Z,28.60
2018-02-09T12:30:19.638Z,24.80
2018-02-09T12:32:47.205Z,24.83
2018-02-09T12:35:14.808Z,21.83
2018-02-09T12:37:43.220Z,26.10
2018-02-09T12:40:10.828Z,22.43
2018-02-09T12:42:38.404Z,27.43
2018-02-09T12:45:06.465Z,23.83
2018-02-09T12:47:34.835Z,26.70
2018-02-09T12:50:02.416Z,25.63
2018-02-09T12:52:30.023Z,25.73
2018-02-09T12:54:57.595Z,27.53
2018-02-09T12:57:25.794Z,22.00
2018-02-09T12:59:54.674Z,22.17
2018-02-09T13:02:22.762Z,24.50
2018-02-09T13:04:55.444Z,22.43
2018-02-09T13:07:23.211Z,33.53
2018-02-09T13:09:51.421Z,22.07
2018-02-09T13:12:31.165Z,19.30
2018-02-09T13:14:59.439Z,20.07
2018-02-09T13:17:27.488Z,21.30
2018-02-09T13:19:55.746Z,19.00
2018-02-09T13:22:35.830Z,20.40
2018-02-09T13:25:03.922Z,22.93
2018-02-09T13:27:33.282Z,21.27
2018-02-09T13:30:01.474Z,19.53
2018-02-09T13:32:42.143Z,22.50
2018-02-09T13:35:10.490Z,21.43
2018-02-09T13:37:38.451Z,21.00
2018-02-09T13:40:06.537Z,20.27
2018-02-09T13:42:34.637Z,21.07
2018-02-09T13:45:02.732Z,21.17
2018-02-09T13:47:30.762Z,20.43
2018-02-09T13:49:59.055Z,19.60
2018-02-09T13:52:29.150Z,23.27
2018-02-09T13:54:56.795Z,22.87
2018-02-09T13:57:24.359Z,21.30
2018-02-09T13:59:51.921Z,22.37
2018-02-09T14:02:19.525Z,26.60
2018-02-09T14:04:47.127Z,21.43
2018-02-09T14:07:14.725Z,23.23
2018-02-09T14:09:42.337Z,24.77
2018-02-09T14:12:09.941Z,22.10
2018-02-09T14:14:37.523Z,22.50
2018-02-09T14:17:05.090Z,22.20
2018-02-09T14:19:32.707Z,25.10
2018-02-09T14:22:00.290Z,24.50
2018-02-09T14:24:28.440Z,25.77
2018-02-09T14:26:56.469Z,23.90
2018-02-09T14:29:24.809Z,25.93
2018-02-09T14:31:52.862Z,23.77
2018-02-09T14:34:21.046Z,26.10
2018-02-09T14:36:49.144Z,23.07
2018-02-09T14:39:16.790Z,25.10
2018-02-09T14:41:44.351Z,22.00
2018-02-09T14:44:11.972Z,23.77
2018-02-09T14:46:39.542Z,24.87
2018-02-09T14:49:07.149Z,29.10
2018-02-09T14:51:34.744Z,27.33
2018-02-09T14:54:03.129Z,29.07
2018-02-09T14:56:31.454Z,27.80
2018-02-09T14:58:59.055Z,32.77
2018-02-09T15:01:27.074Z,31.83
2018-02-09T15:03:54.737Z,32.80
2018-02-09T15:06:22.296Z,30.47
2018-02-09T15:08:50.260Z,36.63
2018-02-09T15:11:18.373Z,29.23
2018-02-09T15:13:46.545Z,30.30
2018-02-09T15:16:14.775Z,32.97
2018-02-09T15:18:42.825Z,32.47
2018-02-09T15:21:11.022Z,34.47
2018-02-09T15:23:39.069Z,37.40
2018-02-09T15:26:06.722Z,34.97
2018-02-09T15:28:34.309Z,37.23
2018-02-09T15:31:01.957Z,34.70
2018-02-09T15:33:29.522Z,34.83
2018-02-09T15:35:57.091Z,42.03
2018-02-09T15:38:24.705Z,35.97
2018-02-09T15:40:52.280Z,35.47
2018-02-09T15:43:20.214Z,33.80
2018-02-09T15:45:49.154Z,36.77
2018-02-09T15:48:16.810Z,40.40
2018-02-09T15:50:45.288Z,35.30
2018-02-09T15:53:12.936Z,39.63
2018-02-09T15:55:40.973Z,41.07
2018-02-09T15:58:09.632Z,39.10
2018-02-09T16:00:39.738Z,38.37
2018-02-09T16:03:07.906Z,34.57
2018-02-09T16:05:36.136Z,44.50
2018-02-09T16:08:04.037Z,47.57
2018-02-09T16:10:32.659Z,45.73
2018-02-09T16:13:00.730Z,42.63
2018-02-09T16:15:28.388Z,47.40
2018-02-09T16:17:56.018Z,47.67
2018-02-09T16:20:23.590Z,44.10
2018-02-09T16:22:51.163Z,45.53
2018-02-09T16:25:18.784Z,47.37
2018-02-09T16:27:46.382Z,45.17
2018-02-09T16:30:13.990Z,47.03
2018-02-09T16:32:41.571Z,48.17
2018-02-09T16:38:03.020Z,51.80
2018-02-09T16:40:33.003Z,54.63
2018-02-09T16:43:01.176Z,55.73
2018-02-09T16:45:29.021Z,53.47
2018-02-09T16:47:57.246Z,53.50
2018-02-09T16:50:26.021Z,55.47
2018-02-09T16:52:53.691Z,55.30
2018-02-09T16:55:21.265Z,54.50
2018-02-09T16:57:49.253Z,57.83
2018-02-09T17:00:18.168Z,61.00
2018-02-09T17:02:46.150Z,61.70
2018-02-09T17:05:14.237Z,62.70
2018-02-09T17:07:42.237Z,56.37
2018-02-09T17:10:14.223Z,60.20
2018-02-09T17:12:42.699Z,53.60
2018-02-09T17:15:10.266Z,60.97
2018-02-09T17:17:38.604Z,59.30
2018-02-09T17:20:07.434Z,56.30
2018-02-09T17:22:35.724Z,57.43
2018-02-09T17:25:04.596Z,58.33
2018-02-09T17:27:32.618Z,57.57
2018-02-09T17:30:00.786Z,59.13
2018-02-09T17:32:29.026Z,63.00
2018-02-09T17:34:57.247Z,59.73
2018-02-09T17:37:26.419Z,62.20
2018-02-09T17:39:54.432Z,57.73
2018-02-09T17:42:22.549Z,65.40
2018-02-09T17:44:50.712Z,67.73
2018-02-09T17:47:18.969Z,65.27
2018-02-09T17:49:47.068Z,65.10
2018-02-09T17:52:15.156Z,67.30
2018-02-09T17:54:43.150Z,70.37
2018-02-09T17:57:11.256Z,62.30
2018-02-09T17:59:40.049Z,66.63
2018-02-09T18:02:08.819Z,66.37
2018-02-09T18:04:37.229Z,64.33
2018-02-09T18:07:04.818Z,66.80
2018-02-09T18:09:32.442Z,61.43
2018-02-09T18:12:00.013Z,68.37
2018-02-09T18:14:27.648Z,64.63
2018-02-09T18:16:55.221Z,63.37
2018-02-09T18:19:22.846Z,62.53
2018-02-09T18:21:50.416Z,61.03
2018-02-09T18:24:18.035Z,63.90
2018-02-09T18:26:45.639Z,69.13
2018-02-09T18:29:13.305Z,71.87
2018-02-09T18:31:40.870Z,80.03
2018-02-09T18:34:08.535Z,90.67
2018-02-09T18:36:36.100Z,94.53
2018-02-09T18:39:03.783Z,85.07
2018-02-09T18:41:31.355Z,72.87
2018-02-09T18:43:58.944Z,70.33
2018-02-09T18:46:26.570Z,66.20
2018-02-09T18:48:54.277Z,73.40
2018-02-09T18:51:21.922Z,70.47
2018-02-09T18:53:49.496Z,73.13
2018-02-09T18:56:17.128Z,71.60
2018-02-09T18:58:44.720Z,79.90
2018-02-09T19:01:12.286Z,68.20
2018-02-09T19:03:40.252Z,71.43
2018-02-09T19:06:08.192Z,73.03
2018-02-09T19:08:35.841Z,72.73
2018-02-09T19:11:03.761Z,71.37
2018-02-09T19:13:31.742Z,71.43
2018-02-09T19:15:59.877Z,78.83
2018-02-09T19:18:27.981Z,74.07
2018-02-09T19:20:55.982Z,78.07
2018-02-09T19:23:24.041Z,82.30
2018-02-09T19:25:52.164Z,74.43
2018-02-09T19:28:20.413Z,77.23
2018-02-09T19:30:49.304Z,77.23
2018-02-09T19:33:17.356Z,85.40
2018-02-09T19:35:46.126Z,81.03
2018-02-09T19:38:14.150Z,81.67
2018-02-09T19:40:42.215Z,81.57
2018-02-09T19:43:10.330Z,83.03
2018-02-09T19:45:38.472Z,82.73
2018-02-09T19:48:06.436Z,86.40
2018-02-09T19:50:34.381Z,86.00
2018-02-09T19:53:02.623Z,87.27
2018-02-09T19:55:30.692Z,84.53
2018-02-09T19:58:00.872Z,85.90
2018-02-09T20:00:28.474Z,87.50
2018-02-09T20:02:56.228Z,81.00
2018-02-09T20:05:24.577Z,79.63
2018-02-09T20:07:52.162Z,79.37
2018-02-09T20:10:20.384Z,88.43
2018-02-09T20:12:48.028Z,91.33
2018-02-09T20:15:16.059Z,79.77
2018-02-09T20:17:43.713Z,84.03
2018-02-09T20:20:11.291Z,77.13
2018-02-09T20:22:38.866Z,82.53
2018-02-09T20:25:06.545Z,84.77
2018-02-09T20:27:34.158Z,85.67
2018-02-09T20:30:01.750Z,82.53
2018-02-09T20:32:29.358Z,86.40
2018-02-09T20:34:56.927Z,79.70
2018-02-09T20:37:25.313Z,86.17
2018-02-09T20:39:52.883Z,87.23
2018-02-09T20:42:20.464Z,80.83
2018-02-09T20:44:48.101Z,88.13
2018-02-09T20:47:15.689Z,89.03
2018-02-09T20:49:43.305Z,90.00
2018-02-09T20:52:10.876Z,83.37
2018-02-09T20:54:38.447Z,92.57
2018-02-09T20:57:06.156Z,89.50
2018-02-09T20:59:33.736Z,88.27
2018-02-09T21:02:01.303Z,86.47
2018-02-09T21:04:28.909Z,84.77
2018-02-09T21:06:56.570Z,88.97
2018-02-09T21:09:24.147Z,88.70
2018-02-09T21:11:51.735Z,88.00
2018-02-09T21:14:19.360Z,98.80
2018-02-09T21:16:46.921Z,98.23
2018-02-09T21:19:15.299Z,89.73
2018-02-09T21:21:43.637Z,94.13
2018-02-09T21:24:11.248Z,93.23
2018-02-09T21:26:38.821Z,88.90
2018-02-09T21:29:06.461Z,92.70
2018-02-09T21:31:34.866Z,93.27
2018-02-09T21:34:02.441Z,86.87
2018-02-09T21:36:30.012Z,89.13
2018-02-09T21:38:57.716Z,93.43
2018-02-09T21:41:25.296Z,86.87
2018-02-09T21:43:53.665Z,98.43
2018-02-09T21:46:22.002Z,90.87
2018-02-09T21:48:49.619Z,93.53
2018-02-09T21:51:17.192Z,93.33
2018-02-09T21:53:44.773Z,95.63
2018-02-09T21:56:12.372Z,94.77
2018-02-09T21:58:39.937Z,89.10
2018-02-09T22:01:07.540Z,92.63
2018-02-09T22:03:35.145Z,87.97
2018-02-09T22:06:02.762Z,89.77
2018-02-09T22:08:30.338Z,98.50
2018-02-09T22:10:57.911Z,92.30
2018-02-09T22:13:25.521Z,88.93
2018-02-09T22:15:53.862Z,89.13
2018-02-09T22:18:21.424Z,97.00
2018-02-09T22:20:49.044Z,95.73
2018-02-09T22:23:16.627Z,93.77
2018-02-09T22:25:44.233Z,96.70
2018-02-09T22:28:11.792Z,90.00
2018-02-09T22:30:40.172Z,97.07
2018-02-09T22:33:08.509Z,89.23
2018-02-09T22:35:36.079Z,95.10
2018-02-09T22:38:03.800Z,98.50
2018-02-09T22:40:31.385Z,99.37
2018-02-09T22:42:58.962Z,97.60
2018-02-09T22:45:26.564Z,93.53
2018-02-09T22:47:54.190Z,99.07
2018-02-09T22:50:21.789Z,94.23
2018-02-09T22:52:49.400Z,100.20
2018-02-09T22:55:17.528Z,109.90
2018-02-09T22:57:45.632Z,100.57
2018-02-09T23:00:13.639Z,105.23
2018-02-09T23:02:43.023Z,105.47
2018-02-09T23:05:11.106Z,97.73
2018-02-09T23:07:39.075Z,103.20
2018-02-09T23:10:07.160Z,104.63
2018-02-09T23:12:35.303Z,112.80
2018-02-09T23:15:03.330Z,105.13
2018-02-09T23:17:31.552Z,108.27
2018-02-09T23:20:00.390Z,109.53
2018-02-09T23:22:28.455Z,109.93
2018-02-09T23:24:56.461Z,107.20
2018-02-09T23:27:24.293Z,110.37
2018-02-09T23:29:52.306Z,130.13
2018-02-09T23:32:21.399Z,145.97
2018-02-09T23:34:49.485Z,131.30
2018-02-09T23:37:21.342Z,114.20
2018-02-09T23:39:49.262Z,106.63
2018-02-09T23:42:17.074Z,115.17
2018-02-09T23:44:44.912Z,111.17
2018-02-09T23:47:12.828Z,113.57
2018-02-09T23:49:40.393Z,93.90
2018-02-09T23:52:09.499Z,114.43
2018-02-09T23:54:37.079Z,107.27
2018-02-09T23:57:04.732Z,104.00
2018-02-09T23:59:32.307Z,98.53
